createdAt,value
2018-08-28T00:00:51.834Z,74.43
2018-08-28T00:01:57.356Z,74.33
2018-08-28T00:03:02.869Z,74.62
2018-08-28T00:04:08.382Z,74.52
2018-08-28T00:05:13.898Z,74.52
2018-08-28T00:06:19.414Z,74.04
2018-08-28T00:07:24.927Z,73.85
2018-08-28T00:08:30.449Z,74.33
2018-08-28T00:09:35.958Z,74.33
2018-08-28T00:10:41.477Z,74.23
2018-08-28T00:11:46.989Z,73.85
2018-08-28T00:12:52.509Z,74.13
2018-08-28T00:13:58.021Z,74.13
2018-08-28T00:15:03.538Z,73.85
2018-08-28T00:16:09.057Z,73.85
2018-08-28T00:17:14.567Z,73.85
2018-08-28T00:18:20.093Z,74.04
2018-08-28T00:19:25.597Z,73.94
2018-08-28T00:20:31.117Z,74.23
2018-08-28T00:21:36.627Z,74.13
2018-08-28T00:22:42.145Z,74.62
2018-08-28T00:23:47.661Z,74.71
2018-08-28T00:24:53.174Z,74.81
2018-08-28T00:25:58.692Z,74.62
2018-08-28T00:27:04.209Z,74.13
2018-08-28T00:28:09.727Z,73.94
2018-08-28T00:29:15.230Z,74.81
2018-08-28T00:30:20.754Z,73.85
2018-08-28T00:31:26.271Z,74.43
2018-08-28T00:32:31.785Z,74.90
2018-08-28T00:33:37.301Z,74.52
2018-08-28T00:34:42.820Z,74.90
2018-08-28T00:35:48.339Z,75.20
2018-08-28T00:36:53.847Z,74.62
2018-08-28T00:37:59.368Z,74.71
2018-08-28T00:39:04.880Z,74.90
2018-08-28T00:40:10.395Z,75.10
2018-08-28T00:41:15.917Z,75.00
2018-08-28T00:42:21.428Z,74.71
2018-08-28T00:43:26.950Z,74.43
2018-08-28T00:44:32.462Z,75.10
2018-08-28T00:45:37.976Z,75.00
2018-08-28T00:46:43.489Z,75.00
2018-08-28T00:47:49.005Z,74.62
2018-08-28T00:48:54.516Z,74.71
2018-08-28T00:50:00.030Z,74.43
2018-08-28T00:51:05.549Z,74.33
2018-08-28T00:52:11.067Z,74.81
2018-08-28T00:53:16.586Z,74.62
2018-08-28T00:54:22.092Z,74.71
2018-08-28T00:55:27.611Z,75.20
2018-08-28T00:56:33.127Z,74.71
2018-08-28T00:57:38.642Z,74.71
2018-08-28T00:58:44.206Z,75.00
2018-08-28T00:59:49.675Z,74.81
2018-08-28T01:00:55.190Z,74.81
2018-08-28T01:02:00.703Z,74.81
2018-08-28T01:03:06.223Z,75.29
2018-08-28T01:04:11.733Z,74.90
2018-08-28T01:05:17.248Z,74.90
2018-08-28T01:06:22.775Z,75.38
2018-08-28T01:07:28.285Z,74.71
2018-08-28T01:08:33.793Z,75.10
2018-08-28T01:09:39.312Z,75.29
2018-08-28T01:10:44.832Z,75.20
2018-08-28T01:11:50.343Z,75.10
2018-08-28T01:12:55.860Z,74.90
2018-08-28T01:14:01.372Z,75.20
2018-08-28T01:15:06.897Z,75.29
2018-08-28T01:16:12.409Z,75.10
2018-08-28T01:17:17.922Z,74.90
2018-08-28T01:18:23.440Z,74.90
2018-08-28T01:19:28.951Z,75.29
2018-08-28T01:20:34.468Z,75.10
2018-08-28T01:21:39.982Z,75.38
2018-08-28T01:22:45.499Z,75.29
2018-08-28T01:23:51.017Z,75.20
2018-08-28T01:24:56.530Z,75.38
2018-08-28T01:26:02.043Z,75.38
2018-08-28T01:27:07.564Z,74.81
2018-08-28T01:28:13.080Z,74.90
2018-08-28T01:29:18.590Z,75.48
2018-08-28T01:30:24.107Z,74.90
2018-08-28T01:31:29.622Z,75.38
2018-08-28T01:32:35.134Z,75.20
2018-08-28T01:33:40.649Z,75.38
2018-08-28T01:34:46.168Z,75.29
2018-08-28T01:35:51.681Z,75.20
2018-08-28T01:36:57.200Z,75.48
2018-08-28T01:38:02.719Z,75.20
2018-08-28T01:39:08.235Z,74.71
2018-08-28T01:40:13.743Z,75.20
2018-08-28T01:41:19.259Z,75.38
2018-08-28T01:42:24.774Z,75.38
2018-08-28T01:43:30.292Z,75.00
2018-08-28T01:44:35.813Z,74.71
2018-08-28T01:45:41.323Z,74.52
2018-08-28T01:46:46.845Z,75.00
2018-08-28T01:47:52.358Z,74.90
2018-08-28T01:48:57.869Z,75.00
2018-08-28T01:50:03.384Z,74.81
2018-08-28T01:51:08.922Z,74.71
2018-08-28T01:52:14.417Z,75.29
2018-08-28T01:53:19.931Z,75.48
2018-08-28T01:54:25.447Z,75.38
2018-08-28T01:55:30.963Z,75.29
2018-08-28T01:56:36.481Z,75.10
2018-08-28T01:57:41.991Z,75.20
2018-08-28T01:58:47.510Z,75.67
2018-08-28T01:59:53.024Z,74.62
2018-08-28T02:00:58.539Z,74.90
2018-08-28T02:02:04.055Z,75.20
2018-08-28T02:03:09.580Z,74.81
2018-08-28T02:04:15.087Z,75.10
2018-08-28T02:05:20.598Z,75.29
2018-08-28T02:06:26.118Z,74.62
2018-08-28T02:07:31.639Z,74.90
2018-08-28T02:08:37.154Z,75.57
2018-08-28T02:09:42.666Z,75.38
2018-08-28T02:10:48.186Z,75.38
2018-08-28T02:11:53.702Z,75.57
2018-08-28T02:12:59.215Z,75.10
2018-08-28T02:14:04.725Z,75.20
2018-08-28T02:15:10.280Z,75.38
2018-08-28T02:16:15.756Z,75.62
2018-08-28T02:17:21.269Z,75.48
2018-08-28T02:18:26.792Z,75.71
2018-08-28T02:19:32.302Z,75.42
2018-08-28T02:20:37.820Z,75.62
2018-08-28T02:21:43.336Z,75.20
2018-08-28T02:22:48.849Z,75.20
2018-08-28T02:23:54.369Z,75.38
2018-08-28T02:24:59.882Z,75.04
2018-08-28T02:26:05.397Z,75.29
2018-08-28T02:27:10.919Z,75.62
2018-08-28T02:28:16.429Z,75.32
2018-08-28T02:29:21.950Z,75.32
2018-08-28T02:30:27.461Z,75.62
2018-08-28T02:31:32.972Z,75.32
2018-08-28T02:32:38.492Z,75.48
2018-08-28T02:33:44.127Z,75.62
2018-08-28T02:34:49.521Z,75.67
2018-08-28T02:35:55.035Z,75.57
2018-08-28T02:37:00.555Z,75.57
2018-08-28T02:38:06.074Z,75.90
2018-08-28T02:39:11.584Z,75.67
2018-08-28T02:40:17.098Z,75.96
2018-08-28T02:41:22.620Z,75.96
2018-08-28T02:42:28.130Z,75.87
2018-08-28T02:43:33.649Z,75.87
2018-08-28T02:44:39.166Z,75.67
2018-08-28T02:45:44.676Z,75.42
2018-08-28T02:46:50.194Z,76.00
2018-08-28T02:47:55.715Z,75.67
2018-08-28T02:49:01.224Z,75.87
2018-08-28T02:50:06.736Z,75.71
2018-08-28T02:51:12.255Z,75.87
2018-08-28T02:52:17.771Z,75.90
2018-08-28T02:53:23.286Z,76.00
2018-08-28T02:54:28.811Z,76.15
2018-08-28T02:55:34.362Z,76.15
2018-08-28T02:56:39.829Z,76.06
2018-08-28T02:57:45.351Z,75.77
2018-08-28T02:58:50.864Z,76.09
2018-08-28T02:59:56.378Z,75.67
2018-08-28T03:01:01.896Z,75.90
2018-08-28T03:02:07.408Z,75.81
2018-08-28T03:03:12.933Z,75.71
2018-08-28T03:04:18.444Z,75.67
2018-08-28T03:05:23.959Z,76.06
2018-08-28T03:06:29.474Z,76.25
2018-08-28T03:07:34.996Z,76.15
2018-08-28T03:08:40.507Z,75.81
2018-08-28T03:09:46.029Z,76.19
2018-08-28T03:10:51.537Z,75.29
2018-08-28T03:11:57.052Z,76.19
2018-08-28T03:13:02.568Z,76.15
2018-08-28T03:14:08.079Z,76.39
2018-08-28T03:15:13.599Z,76.19
2018-08-28T03:16:19.118Z,76.29
2018-08-28T03:17:24.631Z,76.06
2018-08-28T03:18:30.150Z,76.06
2018-08-28T03:19:35.663Z,76.19
2018-08-28T03:20:41.177Z,75.96
2018-08-28T03:21:46.693Z,76.19
2018-08-28T03:22:52.204Z,76.19
2018-08-28T03:23:57.722Z,76.48
2018-08-28T03:25:03.241Z,75.87
2018-08-28T03:26:08.757Z,76.09
2018-08-28T03:27:14.267Z,75.90
2018-08-28T03:28:19.785Z,75.87
2018-08-28T03:29:25.303Z,76.57
2018-08-28T03:30:30.813Z,76.00
2018-08-28T03:31:36.329Z,75.90
2018-08-28T03:32:41.849Z,76.44
2018-08-28T03:33:47.361Z,76.25
2018-08-28T03:34:52.877Z,75.77
2018-08-28T03:35:58.392Z,76.15
2018-08-28T03:37:03.910Z,76.44
2018-08-28T03:38:09.424Z,76.44
2018-08-28T03:39:14.943Z,76.64
2018-08-28T03:40:20.455Z,76.92
2018-08-28T03:41:25.978Z,76.54
2018-08-28T03:42:31.489Z,76.73
2018-08-28T03:43:37.001Z,75.96
2018-08-28T03:44:42.599Z,75.87
2018-08-28T03:45:48.056Z,76.25
2018-08-28T03:46:53.551Z,76.44
2018-08-28T03:47:59.066Z,76.44
2018-08-28T03:49:04.587Z,76.25
2018-08-28T03:50:10.095Z,76.34
2018-08-28T03:51:15.611Z,76.73
2018-08-28T03:52:21.128Z,76.82
2018-08-28T03:53:26.643Z,76.82
2018-08-28T03:54:32.174Z,76.82
2018-08-28T03:55:37.673Z,76.64
2018-08-28T03:56:43.193Z,76.64
2018-08-28T03:57:48.705Z,77.69
2018-08-28T03:58:54.221Z,77.31
2018-08-28T03:59:59.735Z,76.82
2018-08-28T04:01:05.251Z,77.11
2018-08-28T04:02:10.764Z,76.82
2018-08-28T04:03:16.284Z,76.82
2018-08-28T04:04:21.798Z,77.40
2018-08-28T04:05:27.321Z,77.50
2018-08-28T04:06:32.831Z,77.78
2018-08-28T04:07:38.346Z,77.98
2018-08-28T04:08:43.865Z,77.50
2018-08-28T04:09:49.378Z,77.59
2018-08-28T04:10:54.897Z,77.40
2018-08-28T04:12:00.408Z,77.88
2018-08-28T04:13:05.924Z,77.88
2018-08-28T04:14:11.443Z,77.88
2018-08-28T04:15:16.954Z,78.17
2018-08-28T04:16:22.474Z,78.08
2018-08-28T04:17:27.984Z,78.08
2018-08-28T04:18:33.504Z,78.45
2018-08-28T04:19:39.014Z,78.36
2018-08-28T04:20:44.535Z,77.98
2018-08-28T04:21:50.048Z,78.36
2018-08-28T04:22:55.569Z,78.17
2018-08-28T04:24:01.080Z,78.17
2018-08-28T04:25:06.594Z,78.36
2018-08-28T04:26:12.107Z,78.17
2018-08-28T04:27:17.674Z,78.17
2018-08-28T04:28:23.141Z,78.55
2018-08-28T04:29:28.657Z,77.88
2018-08-28T04:30:34.253Z,78.36
2018-08-28T04:31:39.687Z,78.27
2018-08-28T04:32:45.199Z,78.08
2018-08-28T04:33:50.716Z,78.17
2018-08-28T04:34:56.231Z,78.65
2018-08-28T04:36:01.743Z,78.84
2018-08-28T04:37:07.265Z,78.75
2018-08-28T04:38:12.782Z,78.75
2018-08-28T04:39:18.294Z,78.55
2018-08-28T04:40:23.815Z,78.75
2018-08-28T04:41:29.321Z,78.55
2018-08-28T04:42:34.837Z,78.84
2018-08-28T04:43:40.359Z,78.75
2018-08-28T04:44:45.874Z,78.84
2018-08-28T04:45:51.387Z,78.65
2018-08-28T04:46:56.899Z,79.42
2018-08-28T04:48:02.419Z,79.22
2018-08-28T04:49:07.930Z,79.61
2018-08-28T04:50:13.445Z,79.42
2018-08-28T04:51:18.961Z,79.52
2018-08-28T04:52:24.477Z,79.61
2018-08-28T04:53:29.995Z,79.90
2018-08-28T04:54:35.511Z,79.38
2018-08-28T04:55:41.027Z,79.42
2018-08-28T04:56:46.538Z,79.71
2018-08-28T04:57:52.059Z,79.61
2018-08-28T04:58:57.569Z,79.28
2018-08-28T05:00:03.087Z,79.28
2018-08-28T05:01:08.603Z,79.38
2018-08-28T05:02:14.116Z,79.76
2018-08-28T05:03:19.628Z,79.86
2018-08-28T05:04:25.148Z,80.15
2018-08-28T05:05:30.660Z,80.28
2018-08-28T05:06:36.176Z,80.09
2018-08-28T05:07:41.700Z,79.96
2018-08-28T05:08:47.209Z,79.71
2018-08-28T05:09:52.724Z,80.15
2018-08-28T05:10:58.242Z,80.24
2018-08-28T05:12:03.755Z,80.05
2018-08-28T05:13:09.268Z,79.67
2018-08-28T05:14:14.782Z,79.90
2018-08-28T05:15:20.301Z,80.57
2018-08-28T05:16:25.812Z,79.96
2018-08-28T05:17:31.329Z,80.63
2018-08-28T05:18:36.844Z,80.63
2018-08-28T05:19:42.362Z,80.82
2018-08-28T05:20:47.876Z,80.91
2018-08-28T05:21:53.390Z,80.86
2018-08-28T05:22:58.908Z,80.38
2018-08-28T05:24:04.429Z,80.57
2018-08-28T05:25:09.937Z,80.28
2018-08-28T05:26:15.453Z,80.76
2018-08-28T05:27:20.970Z,80.57
2018-08-28T05:28:26.493Z,80.76
2018-08-28T05:29:32.027Z,81.05
2018-08-28T05:30:37.614Z,80.76
2018-08-28T05:31:43.034Z,80.57
2018-08-28T05:32:48.548Z,80.96
2018-08-28T05:33:54.056Z,80.76
2018-08-28T05:34:59.580Z,80.86
2018-08-28T05:36:05.094Z,80.86
2018-08-28T05:37:10.605Z,80.47
2018-08-28T05:38:16.122Z,80.66
2018-08-28T05:39:21.637Z,80.76
2018-08-28T05:40:27.158Z,81.15
2018-08-28T05:41:32.668Z,80.86
2018-08-28T05:42:38.189Z,81.63
2018-08-28T05:43:43.694Z,81.05
2018-08-28T05:44:49.220Z,80.76
2018-08-28T05:45:54.726Z,80.66
2018-08-28T05:47:00.259Z,80.19
2018-08-28T05:48:05.763Z,80.86
2018-08-28T05:49:11.277Z,80.38
2018-08-28T05:50:16.791Z,80.09
2018-08-28T05:51:22.306Z,80.19
2018-08-28T05:52:27.830Z,80.57
2018-08-28T05:53:33.352Z,80.76
2018-08-28T05:54:38.862Z,79.94
2018-08-28T05:55:44.395Z,80.47
2018-08-28T05:56:49.881Z,80.76
2018-08-28T05:57:55.403Z,80.86
2018-08-28T05:59:00.909Z,80.71
2018-08-28T06:00:06.433Z,79.94
2018-08-28T06:01:11.948Z,79.94
2018-08-28T06:02:17.464Z,80.04
2018-08-28T06:03:23.051Z,80.13
2018-08-28T06:04:28.493Z,79.94
2018-08-28T06:05:34.009Z,80.04
2018-08-28T06:06:39.523Z,80.04
2018-08-28T06:07:45.039Z,79.84
2018-08-28T06:08:50.616Z,79.75
2018-08-28T06:09:56.069Z,79.84
2018-08-28T06:11:01.590Z,79.46
2018-08-28T06:12:07.099Z,79.55
2018-08-28T06:13:12.625Z,79.55
2018-08-28T06:14:18.136Z,79.46
2018-08-28T06:15:23.643Z,79.36
2018-08-28T06:16:29.163Z,78.78
2018-08-28T06:17:34.674Z,78.88
2018-08-28T06:18:40.191Z,78.69
2018-08-28T06:19:45.707Z,79.27
2018-08-28T06:20:51.227Z,79.60
2018-08-28T06:21:56.740Z,79.69
2018-08-28T06:23:02.321Z,79.30
2018-08-28T06:24:07.777Z,79.40
2018-08-28T06:25:13.287Z,79.60
2018-08-28T06:26:18.815Z,78.92
2018-08-28T06:27:24.322Z,78.73
2018-08-28T06:28:29.834Z,78.15
2018-08-28T06:29:35.348Z,78.53
2018-08-28T06:30:40.869Z,78.83
2018-08-28T06:31:46.381Z,78.53
2018-08-28T06:32:51.896Z,78.44
2018-08-28T06:33:57.466Z,78.34
2018-08-28T06:35:02.929Z,77.96
2018-08-28T06:36:08.458Z,78.34
2018-08-28T06:37:13.991Z,78.15
2018-08-28T06:38:19.474Z,78.44
2018-08-28T06:39:24.996Z,78.15
2018-08-28T06:40:30.511Z,78.15
2018-08-28T06:41:36.024Z,78.53
2018-08-28T06:42:41.535Z,78.63
2018-08-28T06:43:47.088Z,78.73
2018-08-28T06:44:52.588Z,78.73
2018-08-28T06:45:58.083Z,79.21
2018-08-28T06:47:03.598Z,78.15
2018-08-28T06:48:09.111Z,78.44
2018-08-28T06:49:14.630Z,78.73
2018-08-28T06:50:20.147Z,78.15
2018-08-28T06:51:25.661Z,78.83
2018-08-28T06:52:31.189Z,78.73
2018-08-28T06:53:36.693Z,78.83
2018-08-28T06:54:42.215Z,77.96
2018-08-28T06:55:47.729Z,78.48
2018-08-28T06:56:53.357Z,78.00
2018-08-28T06:57:58.765Z,79.05
2018-08-28T06:59:04.275Z,78.38
2018-08-28T07:00:09.793Z,78.38
2018-08-28T07:01:15.310Z,78.67
2018-08-28T07:02:20.879Z,78.58
2018-08-28T07:03:26.345Z,78.28
2018-08-28T07:04:31.859Z,78.00
2018-08-28T07:05:37.367Z,78.00
2018-08-28T07:06:42.895Z,77.81
2018-08-28T07:07:48.404Z,78.28
2018-08-28T07:08:53.924Z,78.19
2018-08-28T07:09:59.435Z,78.00
2018-08-28T07:11:04.960Z,78.19
2018-08-28T07:12:10.536Z,78.00
2018-08-28T07:13:15.982Z,78.38
2018-08-28T07:14:21.514Z,78.09
2018-08-28T07:15:27.030Z,78.00
2018-08-28T07:16:32.531Z,77.33
2018-08-28T07:17:38.048Z,77.90
2018-08-28T07:18:43.591Z,78.09
2018-08-28T07:19:49.088Z,77.13
2018-08-28T07:20:54.596Z,77.04
2018-08-28T07:22:00.126Z,77.33
2018-08-28T07:23:05.631Z,77.90
2018-08-28T07:24:11.154Z,78.00
2018-08-28T07:25:16.667Z,77.90
2018-08-28T07:26:22.175Z,78.19
2018-08-28T07:27:27.696Z,77.75
2018-08-28T07:28:33.214Z,77.65
2018-08-28T07:29:38.721Z,77.84
2018-08-28T07:30:44.242Z,77.75
2018-08-28T07:31:49.816Z,78.33
2018-08-28T07:32:55.274Z,77.84
2018-08-28T07:34:00.788Z,77.36
2018-08-28T07:35:06.305Z,77.46
2018-08-28T07:36:11.822Z,77.17
2018-08-28T07:37:17.385Z,76.50
2018-08-28T07:38:22.860Z,76.78
2018-08-28T07:39:28.373Z,76.98
2018-08-28T07:40:33.902Z,76.69
2018-08-28T07:41:39.402Z,76.98
2018-08-28T07:42:44.943Z,77.08
2018-08-28T07:43:50.432Z,77.08
2018-08-28T07:44:55.957Z,76.88
2018-08-28T07:46:01.471Z,77.01
2018-08-28T07:47:06.987Z,77.11
2018-08-28T07:48:12.521Z,77.21
2018-08-28T07:49:18.021Z,77.11
2018-08-28T07:50:23.533Z,76.92
2018-08-28T07:51:29.049Z,76.92
2018-08-28T07:52:34.570Z,77.01
2018-08-28T07:53:40.112Z,76.92
2018-08-28T07:54:45.602Z,76.44
2018-08-28T07:55:51.114Z,75.67
2018-08-28T07:56:56.640Z,75.67
2018-08-28T07:58:02.158Z,74.22
2018-08-28T07:59:07.666Z,74.80
2018-08-28T08:00:13.191Z,74.99
2018-08-28T08:01:18.700Z,74.41
2018-08-28T08:02:24.216Z,74.61
2018-08-28T08:03:29.731Z,74.90
2018-08-28T08:04:35.250Z,74.80
2018-08-28T08:05:40.771Z,75.03
2018-08-28T08:06:46.282Z,74.74
2018-08-28T08:07:51.799Z,73.97
2018-08-28T08:08:57.313Z,73.94
2018-08-28T08:10:02.835Z,73.94
2018-08-28T08:11:08.350Z,74.07
2018-08-28T08:12:13.882Z,74.84
2018-08-28T08:13:19.380Z,75.23
2018-08-28T08:14:24.905Z,75.32
2018-08-28T08:15:30.467Z,73.78
2018-08-28T08:16:35.933Z,74.26
2018-08-28T08:17:41.449Z,74.36
2018-08-28T08:18:46.971Z,74.26
2018-08-28T08:19:52.481Z,73.88
2018-08-28T08:20:58.004Z,73.82
2018-08-28T08:22:03.539Z,73.43
2018-08-28T08:23:09.030Z,73.14
2018-08-28T08:24:14.546Z,73.24
2018-08-28T08:25:20.069Z,72.66
2018-08-28T08:26:25.582Z,72.08
2018-08-28T08:27:31.105Z,72.37
2018-08-28T08:28:36.620Z,71.12
2018-08-28T08:29:42.131Z,71.41
2018-08-28T08:30:47.659Z,71.12
2018-08-28T08:31:53.168Z,70.64
2018-08-28T08:32:58.682Z,70.92
2018-08-28T08:34:04.198Z,70.44
2018-08-28T08:35:09.775Z,71.31
2018-08-28T08:36:15.239Z,70.92
2018-08-28T08:37:20.754Z,69.96
2018-08-28T08:38:26.281Z,69.96
2018-08-28T08:39:31.795Z,69.57
2018-08-28T08:40:37.314Z,70.35
2018-08-28T08:41:42.826Z,69.42
2018-08-28T08:42:48.336Z,69.80
2018-08-28T08:43:53.856Z,69.23
2018-08-28T08:44:59.380Z,69.42
2018-08-28T08:46:04.887Z,66.91
2018-08-28T08:47:10.404Z,67.88
2018-08-28T08:48:15.912Z,67.10
2018-08-28T08:49:21.444Z,67.30
2018-08-28T08:50:26.952Z,67.30
2018-08-28T08:51:32.475Z,67.52
2018-08-28T08:52:37.990Z,67.68
2018-08-28T08:53:43.509Z,68.07
2018-08-28T08:54:49.029Z,68.68
2018-08-28T08:55:54.542Z,66.85
2018-08-28T08:57:00.061Z,66.85
2018-08-28T08:58:05.590Z,67.43
2018-08-28T08:59:11.094Z,67.33
2018-08-28T09:00:16.611Z,64.92
2018-08-28T09:01:22.127Z,65.01
2018-08-28T09:02:27.645Z,64.34
2018-08-28T09:03:33.168Z,61.51
2018-08-28T09:04:38.679Z,62.89
2018-08-28T09:05:44.205Z,62.79
2018-08-28T09:06:49.713Z,62.99
2018-08-28T09:07:55.242Z,63.67
2018-08-28T09:09:00.749Z,63.37
2018-08-28T09:10:06.264Z,62.51
2018-08-28T09:11:11.792Z,63.47
2018-08-28T09:12:17.299Z,63.18
2018-08-28T09:13:22.841Z,63.37
2018-08-28T09:14:28.341Z,63.18
2018-08-28T09:15:33.854Z,62.73
2018-08-28T09:16:39.367Z,62.73
2018-08-28T09:17:44.890Z,62.79
2018-08-28T09:18:50.405Z,61.86
2018-08-28T09:19:55.923Z,61.86
2018-08-28T09:21:01.444Z,61.77
2018-08-28T09:22:06.964Z,61.83
2018-08-28T09:23:12.473Z,61.57
2018-08-28T09:24:18.001Z,61.28
2018-08-28T09:25:23.514Z,61.19
2018-08-28T09:26:29.037Z,61.19
2018-08-28T09:27:34.549Z,59.93
2018-08-28T09:28:40.087Z,58.87
2018-08-28T09:29:45.580Z,59.52
2018-08-28T09:30:51.098Z,58.94
2018-08-28T09:31:56.619Z,59.52
2018-08-28T09:33:02.135Z,59.71
2018-08-28T09:34:07.653Z,59.42
2018-08-28T09:35:13.167Z,60.19
2018-08-28T09:36:18.696Z,59.90
2018-08-28T09:37:24.206Z,61.16
2018-08-28T09:38:29.805Z,61.64
2018-08-28T09:39:35.236Z,62.51
2018-08-28T09:40:40.770Z,62.82
2018-08-28T09:41:46.275Z,63.21
2018-08-28T09:42:51.788Z,63.67
2018-08-28T09:43:57.421Z,63.18
2018-08-28T09:45:02.829Z,62.99
2018-08-28T09:46:08.347Z,62.70
2018-08-28T09:47:13.858Z,63.37
2018-08-28T09:48:19.496Z,62.79
2018-08-28T09:49:24.897Z,62.31
2018-08-28T09:50:30.428Z,62.34
2018-08-28T09:51:35.929Z,63.21
2018-08-28T09:52:41.449Z,61.57
2018-08-28T09:53:46.971Z,61.74
2018-08-28T09:54:52.488Z,61.28
2018-08-28T09:55:58.002Z,61.38
2018-08-28T09:57:03.528Z,61.09
2018-08-28T09:58:09.041Z,60.61
2018-08-28T09:59:14.546Z,60.03
2018-08-28T10:00:20.069Z,60.13
2018-08-28T10:01:25.587Z,60.61
2018-08-28T10:02:31.106Z,60.80
2018-08-28T10:03:36.623Z,61.09
2018-08-28T10:04:42.148Z,61.19
2018-08-28T10:05:47.659Z,60.80
2018-08-28T10:06:53.173Z,59.93
2018-08-28T10:07:58.761Z,59.93
2018-08-28T10:09:04.214Z,60.03
2018-08-28T10:10:09.728Z,59.83
2018-08-28T10:11:15.254Z,59.83
2018-08-28T10:12:20.769Z,59.55
2018-08-28T10:13:26.283Z,58.97
2018-08-28T10:14:31.808Z,58.87
2018-08-28T10:15:37.315Z,58.58
2018-08-28T10:16:42.840Z,58.58
2018-08-28T10:17:48.356Z,58.97
2018-08-28T10:18:53.871Z,59.16
2018-08-28T10:19:59.390Z,59.06
2018-08-28T10:21:04.918Z,59.16
2018-08-28T10:22:10.432Z,59.25
2018-08-28T10:23:15.946Z,59.83
2018-08-28T10:24:21.464Z,58.97
2018-08-28T10:25:26.979Z,59.16
2018-08-28T10:26:32.532Z,58.97
2018-08-28T10:27:38.013Z,58.12
2018-08-28T10:28:43.538Z,56.68
2018-08-28T10:29:49.111Z,56.68
2018-08-28T10:30:54.568Z,57.57
2018-08-28T10:32:00.083Z,56.41
2018-08-28T10:33:05.610Z,56.99
2018-08-28T10:34:11.127Z,56.41
2018-08-28T10:35:16.636Z,56.13
2018-08-28T10:36:22.155Z,55.77
2018-08-28T10:37:27.676Z,55.38
2018-08-28T10:38:33.199Z,54.99
2018-08-28T10:39:38.711Z,54.90
2018-08-28T10:40:44.229Z,55.09
2018-08-28T10:41:49.745Z,54.61
2018-08-28T10:42:55.272Z,54.53
2018-08-28T10:44:00.788Z,53.67
2018-08-28T10:45:06.307Z,53.96
2018-08-28T10:46:11.933Z,53.86
2018-08-28T10:47:17.333Z,54.08
2018-08-28T10:48:22.855Z,54.37
2018-08-28T10:49:28.376Z,54.27
2018-08-28T10:50:33.900Z,54.27
2018-08-28T10:51:39.411Z,54.17
2018-08-28T10:52:44.955Z,52.92
2018-08-28T10:53:50.444Z,53.11
2018-08-28T10:54:55.965Z,52.73
2018-08-28T10:56:01.484Z,52.63
2018-08-28T10:57:07.004Z,52.63
2018-08-28T10:58:12.531Z,52.92
2018-08-28T10:59:18.029Z,52.92
2018-08-28T11:00:23.566Z,52.24
2018-08-28T11:01:29.075Z,52.44
2018-08-28T11:02:34.595Z,52.73
2018-08-28T11:03:40.112Z,52.05
2018-08-28T11:04:45.638Z,52.92
2018-08-28T11:05:51.156Z,53.02
2018-08-28T11:06:56.671Z,53.11
2018-08-28T11:08:02.185Z,53.02
2018-08-28T11:09:07.709Z,53.02
2018-08-28T11:10:13.223Z,52.92
2018-08-28T11:11:18.743Z,52.44
2018-08-28T11:12:24.264Z,53.21
2018-08-28T11:13:29.782Z,53.21
2018-08-28T11:14:35.300Z,52.82
2018-08-28T11:15:40.815Z,53.59
2018-08-28T11:16:46.347Z,53.21
2018-08-28T11:17:51.859Z,53.02
2018-08-28T11:18:57.377Z,53.11
2018-08-28T11:20:02.893Z,53.11
2018-08-28T11:21:08.410Z,53.41
2018-08-28T11:22:13.974Z,52.24
2018-08-28T11:23:19.456Z,52.36
2018-08-28T11:24:24.967Z,52.44
2018-08-28T11:25:30.488Z,52.92
2018-08-28T11:26:36.011Z,51.66
2018-08-28T11:27:41.525Z,51.56
2018-08-28T11:28:47.047Z,52.05
2018-08-28T11:29:52.561Z,51.66
2018-08-28T11:30:58.082Z,51.18
2018-08-28T11:32:03.599Z,50.79
2018-08-28T11:33:09.133Z,52.05
2018-08-28T11:34:14.638Z,51.76
2018-08-28T11:35:20.156Z,50.72
2018-08-28T11:36:25.677Z,50.62
2018-08-28T11:37:31.196Z,49.85
2018-08-28T11:38:36.751Z,50.07
2018-08-28T11:39:42.233Z,50.16
2018-08-28T11:40:47.762Z,49.87
2018-08-28T11:41:53.270Z,50.14
2018-08-28T11:42:58.788Z,50.14
2018-08-28T11:44:04.309Z,50.24
2018-08-28T11:45:09.834Z,50.24
2018-08-28T11:46:15.357Z,51.01
2018-08-28T11:47:20.864Z,50.43
2018-08-28T11:48:26.385Z,50.26
2018-08-28T11:49:31.902Z,50.07
2018-08-28T11:50:37.420Z,49.49
2018-08-28T11:51:42.943Z,49.19
2018-08-28T11:52:48.462Z,49.58
2018-08-28T11:53:53.983Z,50.16
2018-08-28T11:54:59.494Z,50.16
2018-08-28T11:56:05.022Z,50.26
2018-08-28T11:57:10.534Z,50.07
2018-08-28T11:58:16.063Z,50.67
2018-08-28T11:59:21.570Z,50.29
2018-08-28T12:00:27.089Z,50.38
2018-08-28T12:01:32.609Z,50.09
2018-08-28T12:02:38.135Z,49.80
2018-08-28T12:03:43.649Z,50.96
2018-08-28T12:04:49.221Z,51.35
2018-08-28T12:05:54.688Z,49.90
2018-08-28T12:07:00.231Z,51.06
2018-08-28T12:08:05.728Z,50.38
2018-08-28T12:09:11.249Z,50.31
2018-08-28T12:10:16.771Z,50.31
2018-08-28T12:11:22.282Z,50.41
2018-08-28T12:12:27.807Z,50.21
2018-08-28T12:13:33.330Z,47.98
2018-08-28T12:14:38.847Z,48.39
2018-08-28T12:15:44.396Z,47.79
2018-08-28T12:16:49.884Z,47.40
2018-08-28T12:17:55.399Z,47.33
2018-08-28T12:19:00.923Z,47.72
2018-08-28T12:20:06.438Z,47.62
2018-08-28T12:21:11.967Z,47.23
2018-08-28T12:22:17.480Z,48.00
2018-08-28T12:23:23.001Z,47.83
2018-08-28T12:24:28.518Z,47.83
2018-08-28T12:25:34.039Z,48.42
2018-08-28T12:26:39.566Z,47.93
2018-08-28T12:27:45.083Z,47.45
2018-08-28T12:28:50.606Z,47.45
2018-08-28T12:29:56.114Z,47.16
2018-08-28T12:31:01.648Z,46.96
2018-08-28T12:32:07.156Z,46.96
2018-08-28T12:33:12.679Z,48.22
2018-08-28T12:34:18.198Z,47.55
2018-08-28T12:35:23.715Z,46.48
2018-08-28T12:36:29.236Z,45.99
2018-08-28T12:37:34.758Z,45.80
2018-08-28T12:38:40.282Z,45.04
2018-08-28T12:39:45.804Z,45.70
2018-08-28T12:40:51.324Z,45.31
2018-08-28T12:41:56.844Z,45.34
2018-08-28T12:43:02.357Z,44.85
2018-08-28T12:44:08.104Z,44.54
2018-08-28T12:45:13.400Z,45.14
2018-08-28T12:46:18.920Z,44.75
2018-08-28T12:47:24.444Z,45.34
2018-08-28T12:48:30.236Z,44.85
2018-08-28T12:49:35.476Z,45.43
2018-08-28T12:50:40.994Z,45.43
2018-08-28T12:51:46.520Z,45.72
2018-08-28T12:52:52.042Z,44.05
2018-08-28T12:53:57.557Z,44.54
2018-08-28T12:55:03.429Z,45.04
2018-08-28T12:56:08.604Z,44.92
2018-08-28T12:57:14.121Z,45.51
2018-08-28T12:58:19.650Z,45.70
2018-08-28T12:59:25.155Z,45.70
2018-08-28T13:00:30.722Z,45.51
2018-08-28T13:01:36.203Z,45.89
2018-08-28T13:02:41.720Z,46.21
2018-08-28T13:03:47.240Z,46.79
2018-08-28T13:04:52.767Z,46.58
2018-08-28T13:05:58.280Z,45.92
2018-08-28T13:07:03.800Z,45.62
2018-08-28T13:08:09.322Z,46.11
2018-08-28T13:09:14.836Z,45.43
2018-08-28T13:10:20.364Z,44.95
2018-08-28T13:11:25.876Z,45.04
2018-08-28T13:12:31.408Z,44.85
2018-08-28T13:13:36.918Z,44.95
2018-08-28T13:14:42.499Z,44.27
2018-08-28T13:15:47.962Z,43.98
2018-08-28T13:16:53.477Z,44.17
2018-08-28T13:17:59.000Z,43.40
2018-08-28T13:19:04.519Z,44.56
2018-08-28T13:20:10.048Z,43.51
2018-08-28T13:21:15.565Z,43.78
2018-08-28T13:22:21.082Z,44.48
2018-08-28T13:23:26.595Z,44.29
2018-08-28T13:24:32.123Z,44.48
2018-08-28T13:25:37.750Z,44.38
2018-08-28T13:26:43.162Z,45.07
2018-08-28T13:27:48.700Z,44.09
2018-08-28T13:28:54.205Z,43.61
2018-08-28T13:29:59.725Z,43.02
2018-08-28T13:31:05.242Z,42.66
2018-08-28T13:32:10.771Z,44.41
2018-08-28T13:33:16.284Z,43.05
2018-08-28T13:34:21.804Z,44.29
2018-08-28T13:35:27.338Z,44.58
2018-08-28T13:36:32.843Z,45.75
2018-08-28T13:37:38.363Z,42.71
2018-08-28T13:38:43.885Z,42.52
2018-08-28T13:39:49.401Z,43.40
2018-08-28T13:40:54.935Z,44.07
2018-08-28T13:42:00.512Z,45.14
2018-08-28T13:43:05.966Z,45.14
2018-08-28T13:44:11.496Z,44.95
2018-08-28T13:45:17.015Z,45.82
2018-08-28T13:46:22.533Z,46.31
2018-08-28T13:47:28.049Z,45.72
2018-08-28T13:48:33.576Z,45.14
2018-08-28T13:49:39.166Z,44.95
2018-08-28T13:50:44.697Z,45.62
2018-08-28T13:51:50.135Z,44.56
2018-08-28T13:52:55.651Z,43.10
2018-08-28T13:54:01.189Z,44.37
2018-08-28T13:55:06.692Z,44.46
2018-08-28T13:56:12.218Z,44.37
2018-08-28T13:57:17.731Z,44.05
2018-08-28T13:58:23.257Z,43.18
2018-08-28T13:59:28.782Z,44.15
2018-08-28T14:00:34.292Z,44.15
2018-08-28T14:01:39.814Z,44.64
2018-08-28T14:02:45.335Z,44.64
2018-08-28T14:03:50.860Z,44.81